Sonnenkopf, Austria
Current Conditions -  °F | °C
As of 6:50 PM on Friday 31 Oct 2014 (Local Time) from LSZR Reporting Station
Clear Clear  
Wind Chill: 48°   Ceiling: Unl
Heat Index: 48°   Visibility: 6mi
Dew Point: 45°   Wind: 2mph
Humidity: 87%   Direction: 180°S
Pressure: 30.27"   Gusts: NA
Location:  47.13°N, 10.06°E
Report Text: LSZR 311650Z 18002KT CAVOK 09/07 Q1025 NOSIG RMK L
Loading
Personal Weather Stations






























Interactive Weather Map
Tropical Storm Tracking
New forecast layout! Learn more

10-Day Weather Forecast

Advertisements
Track Severe Weather on mobile